Forside
METAR-TAF:

METAR-TAF

Lufthavne :

Mashhad, Iran

Breddekreds: 36-16N, længdekreds: 059-38E, højde: 989 m

Aktuelle vejr

Denne rapport blev lavet for 27 minutter siden, kl. 19:30 UTC
Vind stille
Temperatur 24°C
Fugtighed 27%
Tryk 1016 hPa
Sigt 10 km eller mere
ingen skyer under 1500m og ingen cumulonimbus

METAR: OIMM 141930Z 00000KT CAVOK 24/04 Q1015 A2999

Tid: 00:27 (19:57 UTC)

Vejrudsigter

Denne rapport blev lavet for 2 timer og 27 minutter siden, kl. 17:30 UTC
Foreløbig gælder fra 14 på 18 UTC til 15 på 24 UTC
Vind 6 kt fra syd
Sigt 10 km eller mere
ingen skyer under 1500m og ingen cumulonimbus
ændring
fra 15 på 06 UTC til 15 på 08 UTC
Vind 14 kt fra østnordøst
ændring
fra 15 på 18 UTC til 15 på 20 UTC
Vind 6 kt fra syd

TAF: OIMM 141730Z 1418/1524 17003MPS CAVOK BECMG 1506/1508 06007MPS BECMG 1518/1520 18003MPS

Vejrobservationer og prognoser fra mere end 4000 lufthavne (METAR og TAF).

De gule og røde prikker repræsenterer de meteorologiske stationer.

Flyt musen over at se navnet på stationen.

Så klik over at se vejr observationer og prognoser.

At skifte det kort: Klik på de grønne knapper med et sort kors for at zoome ind; på den grønne knap med en bindestreg for at zoome ud; eller på de grønne pile for tilstødende kort.


METAR-TAF: